Smoot, Wyoming
Current Conditions -  °F | °C
As of 9:35 AM on Tuesday 21 Oct 2014 (Local Time) from KAFO Reporting Station
Drizzle Drizzle  
Wind Chill: 50°   Ceiling: Unl
Heat Index: 50°   Visibility: 10mi
Dew Point: 37°   Wind: 22mph
Humidity: 62%   Direction: 120°ESE
Pressure: 29.95"   Gusts: 30mph
Location:  42.62°N, 110.92°W
Report Text: KAFO 211535Z AUTO 12019G26KT 10SM -DZ SCT006 SCT012 SCT021 10/03 A2995 RMK AO2
Loading
Personal Weather Stations






























Interactive Weather Map
Tropical Storm Tracking
New forecast layout! Learn more

10-Day Weather Forecast

Advertisements
Track Severe Weather on mobile